Red Hill, Pennsylvania
Current Conditions -  °F | °C
As of 10:54 AM on Sunday 25 Jan 2015 (Local Time) from KPTW Reporting Station
Overcast Overcast  
Wind Chill: 34°   Ceiling: 3500
Heat Index: 38°   Visibility: 10mi
Dew Point: 28°   Wind: 5mph
Humidity: 68%   Direction: 250°WSW
Pressure: 29.81"   Gusts: NA
Location:  40.37°N, 75.48°W
Report Text: KPTW 251554Z AUTO 25004KT 10SM OVC035 03/M02 A2981 RMK AO2 SLP096 T00331022
Loading
Personal Weather Stations






























Interactive Weather Map New forecast layout! Learn more

10-Day Weather Forecast

Advertisements
Track Severe Weather on mobile